Time;durP1;ratioP1;P1;durP2;ratioP2;P2;SDS_P1;SDS_P2;PMS_P1;PMS_P2;Temp;Humidity;BMP_temperature;BMP_pressure;BME280_temperature;BME280_humidity;BME280_pressure;Samples;Min_cycle;Max_cycle;Signal;HPM_P1;HPM_P2
2023/12/01 00:00:13;;;;;;;7.95;7.45;;;;;;;;;;6093946;29;20530;-96
2023/12/01 00:03:14;;;;;;;9.15;8.55;;;;;;;;;;6088236;29;20076;-95
2023/12/01 00:06:17;;;;;;;10.43;9.63;;;;;;;;;;6093174;29;20557;-96
2023/12/01 00:09:19;;;;;;;10.70;9.93;;;;;;;;;;6096556;29;20039;-96
2023/12/01 00:12:21;;;;;;;10.63;9.88;;;;;;;;;;6094751;29;20447;-96
2023/12/01 00:15:23;;;;;;;9.32;8.73;;;;;;;;;;6078160;29;20199;-96
2023/12/01 00:18:24;;;;;;;9.65;8.98;;;;;;;;;;6095167;29;20044;-96
2023/12/01 00:21:27;;;;;;;11.00;9.88;;;;;;;;;;6096110;29;20529;-96
2023/12/01 00:24:30;;;;;;;11.93;9.25;;;;;;;;;;6074922;29;20088;-96
2023/12/01 00:27:32;;;;;;;9.90;9.20;;;;;;;;;;6093498;29;20156;-96
2023/12/01 00:30:34;;;;;;;11.88;10.45;;;;;;;;;;6077334;29;20052;-96
2023/12/01 00:33:36;;;;;;;6.68;6.38;;;;;;;;;;6094937;29;20095;-96
2023/12/01 00:36:38;;;;;;;8.77;8.02;;;;;;;;;;6076980;29;20204;-96
2023/12/01 00:39:41;;;;;;;14.93;9.43;;;;;;;;;;6076737;29;20435;-96
2023/12/01 00:42:42;;;;;;;9.90;8.77;;;;;;;;;;6092507;29;20048;-96
2023/12/01 00:45:44;;;;;;;9.30;8.80;;;;;;;;;;6109347;29;20056;-96
2023/12/01 00:48:47;;;;;;;9.60;9.00;;;;;;;;;;6093350;29;20044;-96
2023/12/01 00:51:51;;;;;;;11.15;10.15;;;;;;;;;;6091953;29;20168;-96
2023/12/01 00:54:53;;;;;;;8.85;8.27;;;;;;;;;;6077185;29;20052;-96
2023/12/01 00:57:55;;;;;;;10.25;9.52;;;;;;;;;;6093404;29;20056;-95
2023/12/01 01:00:57;;;;;;;9.60;8.77;;;;;;;;;;6099189;29;20048;-96
2023/12/01 01:03:59;;;;;;;15.90;10.98;;;;;;;;;;6093738;29;20040;-96
2023/12/01 01:07:02;;;;;;;10.07;9.40;;;;;;;;;;6094602;29;20055;-96
2023/12/01 01:10:05;;;;;;;11.63;10.60;;;;;;;;;;6093984;29;20051;-96
2023/12/01 01:13:07;;;;;;;9.88;9.18;;;;;;;;;;6108941;29;20455;-96
2023/12/01 01:16:10;;;;;;;15.93;11.70;;;;;;;;;;6092272;29;20637;-96
2023/12/01 01:19:11;;;;;;;9.60;8.95;;;;;;;;;;6092464;29;20040;-96
2023/12/01 01:22:13;;;;;;;10.27;9.43;;;;;;;;;;6085944;29;20049;-96
2023/12/01 01:25:15;;;;;;;9.02;8.18;;;;;;;;;;6092764;29;20151;-96
2023/12/01 01:28:17;;;;;;;12.95;11.60;;;;;;;;;;6091198;29;20055;-96
2023/12/01 01:31:19;;;;;;;11.85;10.85;;;;;;;;;;6082485;29;20087;-96
2023/12/01 01:34:20;;;;;;;11.98;10.02;;;;;;;;;;6089156;29;20107;-96
2023/12/01 01:37:25;;;;;;;10.15;8.52;;;;;;;;;;6076094;29;20705;-95
2023/12/01 01:40:26;;;;;;;9.82;8.95;;;;;;;;;;6092821;29;20127;-95
2023/12/01 01:43:31;;;;;;;10.05;9.27;;;;;;;;;;6091811;29;20062;-95
2023/12/01 01:46:35;;;;;;;9.68;8.98;;;;;;;;;;6107483;29;20048;-95
2023/12/01 01:49:38;;;;;;;15.73;10.98;;;;;;;;;;6091536;29;20071;-96
2023/12/01 01:52:40;;;;;;;9.50;8.93;;;;;;;;;;6093319;29;20036;-95
2023/12/01 01:55:42;;;;;;;7.82;7.43;;;;;;;;;;6088308;29;20051;-95
2023/12/01 01:58:43;;;;;;;12.73;10.50;;;;;;;;;;6076040;29;20052;-95
2023/12/01 02:01:46;;;;;;;15.38;9.82;;;;;;;;;;6091741;29;20052;-95
2023/12/01 02:04:47;;;;;;;9.73;9.00;;;;;;;;;;6090842;29;20036;-95
2023/12/01 02:07:49;;;;;;;11.07;10.13;;;;;;;;;;6092710;29;20036;-96
2023/12/01 02:10:52;;;;;;;15.05;10.90;;;;;;;;;;6082832;29;20044;-96
2023/12/01 02:13:54;;;;;;;9.40;8.85;;;;;;;;;;6089751;29;20749;-95
2023/12/01 02:16:56;;;;;;;9.93;9.05;;;;;;;;;;6082567;29;20496;-95
2023/12/01 02:19:58;;;;;;;10.88;8.10;;;;;;;;;;6090259;29;20044;-95
2023/12/01 02:23:03;;;;;;;7.80;7.40;;;;;;;;;;6082620;29;20047;-95
2023/12/01 02:26:09;;;;;;;10.00;9.30;;;;;;;;;;6088504;29;20048;-95
2023/12/01 02:29:11;;;;;;;11.25;9.48;;;;;;;;;;6104283;29;20206;-95
2023/12/01 02:32:13;;;;;;;9.23;8.35;;;;;;;;;;6095404;29;20511;-95
2023/12/01 02:35:15;;;;;;;11.20;10.13;;;;;;;;;;6094090;29;20059;-95
2023/12/01 02:38:17;;;;;;;10.23;9.43;;;;;;;;;;6094205;29;20051;-95
2023/12/01 02:41:19;;;;;;;8.88;8.30;;;;;;;;;;6094708;29;20498;-96
2023/12/01 02:44:20;;;;;;;10.13;9.55;;;;;;;;;;6093114;29;20048;-96
2023/12/01 02:47:22;;;;;;;12.18;10.43;;;;;;;;;;6095092;29;20052;-96
2023/12/01 02:50:24;;;;;;;9.65;8.80;;;;;;;;;;6096385;29;20043;-96
2023/12/01 02:53:26;;;;;;;9.57;8.95;;;;;;;;;;6095630;29;20048;-96
2023/12/01 02:56:28;;;;;;;13.02;10.95;;;;;;;;;;6088624;29;20089;-95
2023/12/01 02:59:31;;;;;;;10.52;9.50;;;;;;;;;;6078783;29;20044;-95
2023/12/01 03:02:33;;;;;;;11.07;10.07;;;;;;;;;;6093094;29;20047;-95
2023/12/01 03:05:36;;;;;;;11.10;10.27;;;;;;;;;;6092844;29;20083;-95
2023/12/01 03:08:37;;;;;;;12.32;11.10;;;;;;;;;;6090702;29;20060;-95
2023/12/01 03:11:39;;;;;;;16.77;15.02;;;;;;;;;;6101392;29;20048;-95
2023/12/01 03:14:41;;;;;;;14.00;12.75;;;;;;;;;;6082837;29;20040;-96
2023/12/01 03:18:03;;;;;;;12.88;11.30;;;;;;;;;;6085982;29;20080;-96
2023/12/01 03:21:12;;;;;;;12.07;11.02;;;;;;;;;;6085896;29;20135;-94
2023/12/01 03:24:16;;;;;;;;;;;;;;;;;;6076548;29;20128;-95
2023/12/01 03:27:17;;;;;;;17.00;11.32;;;;;;;;;;6102025;29;19931;-95
2023/12/01 03:30:19;;;;;;;12.63;11.23;;;;;;;;;;6090032;29;20052;-96
2023/12/01 03:33:22;;;;;;;13.25;11.55;;;;;;;;;;6094811;29;20045;-96
2023/12/01 03:36:27;;;;;;;13.45;12.05;;;;;;;;;;6091967;29;20063;-96
2023/12/01 03:39:30;;;;;;;11.98;11.02;;;;;;;;;;6091819;29;20192;-95
2023/12/01 03:42:31;;;;;;;10.88;9.82;;;;;;;;;;6079865;29;20056;-95
2023/12/01 03:45:33;;;;;;;10.70;9.82;;;;;;;;;;6109625;29;20495;-95
2023/12/01 03:48:36;;;;;;;10.35;9.50;;;;;;;;;;6109363;29;20052;-95
2023/12/01 03:51:37;;;;;;;10.20;9.30;;;;;;;;;;6094794;29;20142;-95
2023/12/01 03:54:39;;;;;;;10.52;9.80;;;;;;;;;;6094162;29;20591;-96
2023/12/01 03:57:42;;;;;;;12.25;9.85;;;;;;;;;;6073747;29;20049;-95
2023/12/01 04:00:44;;;;;;;25.23;10.18;;;;;;;;;;6083569;29;20044;-95
2023/12/01 04:03:45;;;;;;;14.00;10.95;;;;;;;;;;6093943;29;20040;-94
2023/12/01 04:06:48;;;;;;;11.50;10.52;;;;;;;;;;6091125;29;20793;-95
2023/12/01 04:09:50;;;;;;;11.30;10.35;;;;;;;;;;6108921;29;20040;-95
2023/12/01 04:12:52;;;;;;;15.68;9.77;;;;;;;;;;6101263;29;20145;-94
2023/12/01 04:15:57;;;;;;;10.65;9.75;;;;;;;;;;6086667;29;20044;-95
2023/12/01 04:18:59;;;;;;;20.92;11.50;;;;;;;;;;6094162;29;20176;-95
2023/12/01 04:22:02;;;;;;;16.45;11.10;;;;;;;;;;6089918;29;20096;-95
2023/12/01 04:25:06;;;;;;;13.40;11.82;;;;;;;;;;6090828;29;20044;-94
2023/12/01 04:28:08;;;;;;;12.40;11.23;;;;;;;;;;6090330;29;20590;-95
2023/12/01 04:31:10;;;;;;;12.07;10.43;;;;;;;;;;6092777;29;20103;-95
2023/12/01 04:34:20;;;;;;;10.32;9.13;;;;;;;;;;6094544;29;20568;-94
2023/12/01 04:37:22;;;;;;;12.15;10.27;;;;;;;;;;6101893;29;20070;-95
2023/12/01 04:40:26;;;;;;;9.20;8.60;;;;;;;;;;6060963;29;20134;-94
2023/12/01 04:43:29;;;;;;;11.80;10.45;;;;;;;;;;6093489;29;20079;-95
2023/12/01 04:46:30;;;;;;;12.77;11.77;;;;;;;;;;6091729;29;20059;-95
2023/12/01 04:49:32;;;;;;;10.50;9.65;;;;;;;;;;6093222;29;20475;-95
2023/12/01 04:52:34;;;;;;;19.33;10.30;;;;;;;;;;6108581;29;20056;-95
2023/12/01 04:55:36;;;;;;;9.98;9.15;;;;;;;;;;6093648;29;20541;-94
2023/12/01 04:58:37;;;;;;;10.50;9.55;;;;;;;;;;6076844;29;20055;-95
2023/12/01 05:01:40;;;;;;;10.57;9.70;;;;;;;;;;6086210;29;20048;-95
2023/12/01 05:04:42;;;;;;;10.80;9.73;;;;;;;;;;6092675;29;20048;-95
2023/12/01 05:07:45;;;;;;;8.68;8.18;;;;;;;;;;6094298;29;20149;-94
2023/12/01 05:10:47;;;;;;;8.05;7.47;;;;;;;;;;6090516;29;20104;-94
2023/12/01 05:13:48;;;;;;;14.27;10.52;;;;;;;;;;6092378;29;20062;-95
2023/12/01 05:16:50;;;;;;;9.88;8.93;;;;;;;;;;6093131;29;20044;-95
2023/12/01 05:19:53;;;;;;;11.45;10.45;;;;;;;;;;6107380;29;20051;-94
2023/12/01 05:22:58;;;;;;;10.90;10.13;;;;;;;;;;6093473;29;20072;-94
2023/12/01 05:25:59;;;;;;;12.18;11.02;;;;;;;;;;6088090;29;20134;-94
2023/12/01 05:29:01;;;;;;;12.45;11.18;;;;;;;;;;6092036;29;20052;-94
2023/12/01 05:32:03;;;;;;;10.50;9.50;;;;;;;;;;6093434;29;20048;-94
2023/12/01 05:35:10;;;;;;;12.93;10.05;;;;;;;;;;6093040;29;20388;-94
2023/12/01 05:38:12;;;;;;;10.13;9.35;;;;;;;;;;6107294;29;20051;-94
2023/12/01 05:41:14;;;;;;;9.85;9.18;;;;;;;;;;6092194;29;20123;-94
2023/12/01 05:44:15;;;;;;;11.82;8.25;;;;;;;;;;6094013;29;20870;-93
2023/12/01 05:47:17;;;;;;;10.75;8.65;;;;;;;;;;6107734;29;20694;-92
2023/12/01 05:50:20;;;;;;;9.45;8.90;;;;;;;;;;6093724;29;20506;-93
2023/12/01 05:53:22;;;;;;;10.77;10.05;;;;;;;;;;6092544;29;20487;-93
2023/12/01 05:56:24;;;;;;;9.50;8.43;;;;;;;;;;6091356;29;20056;-93
2023/12/01 05:59:26;;;;;;;9.95;9.18;;;;;;;;;;6096778;29;20040;-93
2023/12/01 06:02:28;;;;;;;7.22;6.70;;;;;;;;;;6096556;29;20044;-93
2023/12/01 06:05:31;;;;;;;9.43;8.63;;;;;;;;;;6096835;29;20044;-94
2023/12/01 06:08:32;;;;;;;9.35;8.77;;;;;;;;;;6096538;29;20059;-94
2023/12/01 06:11:34;;;;;;;11.00;9.15;;;;;;;;;;6095323;29;20041;-93
2023/12/01 06:14:36;;;;;;;9.43;8.52;;;;;;;;;;6092288;29;20131;-93
2023/12/01 06:17:41;;;;;;;7.80;7.22;;;;;;;;;;6089791;29;20119;-93
2023/12/01 06:20:43;;;;;;;9.35;8.60;;;;;;;;;;6096893;29;20127;-93
2023/12/01 06:23:45;;;;;;;7.72;7.18;;;;;;;;;;6096489;29;20044;-93
2023/12/01 06:26:48;;;;;;;9.07;8.52;;;;;;;;;;6078787;29;20323;-93
2023/12/01 06:29:51;;;;;;;15.77;10.13;;;;;;;;;;6097625;29;20043;-94
2023/12/01 06:32:53;;;;;;;11.05;10.15;;;;;;;;;;6097208;29;20142;-94
2023/12/01 06:35:55;;;;;;;10.55;9.27;;;;;;;;;;6105395;29;20066;-93
2023/12/01 06:38:57;;;;;;;13.68;9.88;;;;;;;;;;6095711;29;20456;-93
2023/12/01 06:41:59;;;;;;;10.30;9.60;;;;;;;;;;6096378;29;20044;-93
2023/12/01 06:45:02;;;;;;;10.60;9.52;;;;;;;;;;6111314;29;20115;-93
2023/12/01 06:48:04;;;;;;;13.18;10.20;;;;;;;;;;6094978;29;20052;-93
2023/12/01 06:51:06;;;;;;;9.32;8.50;;;;;;;;;;6092500;29;20048;-93
2023/12/01 06:54:09;;;;;;;9.38;8.77;;;;;;;;;;6092760;29;20041;-94
2023/12/01 06:57:11;;;;;;;11.90;10.45;;;;;;;;;;6096681;29;20054;-93
2023/12/01 07:00:36;;;;;;;11.43;10.57;;;;;;;;;;6096363;29;20102;-94
2023/12/01 07:03:38;;;;;;;12.68;11.63;;;;;;;;;;6109335;29;20404;-93
2023/12/01 07:06:46;;;;;;;17.60;9.98;;;;;;;;;;6096930;29;20130;-94
2023/12/01 07:09:47;;;;;;;8.98;8.18;;;;;;;;;;6097917;29;20491;-94
2023/12/01 07:12:59;;;;;;;11.02;10.20;;;;;;;;;;6112696;29;20180;-94
2023/12/01 07:16:09;;;;;;;7.75;7.05;;;;;;;;;;6096409;29;20051;-94
2023/12/01 07:19:12;;;;;;;11.25;10.35;;;;;;;;;;6074192;29;20052;-94
2023/12/01 07:22:14;;;;;;;9.65;8.95;;;;;;;;;;6093578;29;20051;-95
2023/12/01 07:25:26;;;;;;;9.45;7.75;;;;;;;;;;6097976;29;20055;-95
2023/12/01 07:28:41;;;;;;;9.00;8.30;;;;;;;;;;6097230;29;20388;-95
2023/12/01 07:31:43;;;;;;;11.48;10.50;;;;;;;;;;6069476;29;20051;-95
2023/12/01 07:34:45;;;;;;;8.85;8.00;;;;;;;;;;6085377;29;20438;-95
2023/12/01 07:37:47;;;;;;;8.50;7.90;;;;;;;;;;6096073;29;20428;-95
2023/12/01 07:40:50;;;;;;;8.07;7.25;;;;;;;;;;6096644;29;20430;-96
2023/12/01 07:43:53;;;;;;;7.88;7.20;;;;;;;;;;6092693;29;20511;-95
2023/12/01 07:46:54;;;;;;;12.80;8.68;;;;;;;;;;6089093;29;20059;-95
2023/12/01 07:49:56;;;;;;;10.27;9.50;;;;;;;;;;6095787;29;20048;-95
2023/12/01 07:52:58;;;;;;;8.63;7.93;;;;;;;;;;6096646;29;20048;-96
2023/12/01 07:56:00;;;;;;;7.75;7.30;;;;;;;;;;6096078;29;20099;-96
2023/12/01 07:59:04;;;;;;;14.32;9.18;;;;;;;;;;6083813;29;20530;-96
2023/12/01 08:02:09;;;;;;;8.73;8.15;;;;;;;;;;6095969;29;20048;-95
2023/12/01 08:05:15;;;;;;;7.97;7.05;;;;;;;;;;6096911;29;20051;-96
2023/12/01 08:08:19;;;;;;;11.75;7.90;;;;;;;;;;6097363;29;20418;-94
2023/12/01 08:11:21;;;;;;;9.85;9.15;;;;;;;;;;6079241;29;20052;-95
2023/12/01 08:14:23;;;;;;;9.50;8.73;;;;;;;;;;6098163;29;20054;-95
2023/12/01 08:17:25;;;;;;;8.48;7.97;;;;;;;;;;6086091;29;20056;-96
2023/12/01 08:20:28;;;;;;;8.88;8.27;;;;;;;;;;6094717;29;20048;-95
2023/12/01 08:23:31;;;;;;;9.02;8.10;;;;;;;;;;6111692;29;20051;-95
2023/12/01 08:26:33;;;;;;;8.95;8.25;;;;;;;;;;6094290;29;20062;-96
2023/12/01 08:29:35;;;;;;;8.25;7.55;;;;;;;;;;6095474;29;20052;-94
2023/12/01 08:32:38;;;;;;;8.70;7.80;;;;;;;;;;6110579;29;20869;-96
2023/12/01 08:35:41;;;;;;;10.55;9.70;;;;;;;;;;6093015;29;20055;-95
2023/12/01 08:38:43;;;;;;;11.00;8.60;;;;;;;;;;6080097;29;20052;-96
2023/12/01 08:41:45;;;;;;;9.25;8.40;;;;;;;;;;6082503;29;20048;-96
2023/12/01 08:44:48;;;;;;;6.97;6.60;;;;;;;;;;6094382;29;20032;-95
2023/12/01 08:47:51;;;;;;;7.85;7.22;;;;;;;;;;6096417;29;20059;-96
2023/12/01 08:50:54;;;;;;;7.93;7.25;;;;;;;;;;6088709;29;20044;-96
2023/12/01 08:53:59;;;;;;;8.27;7.80;;;;;;;;;;6094515;29;20056;-96
2023/12/01 08:57:01;;;;;;;8.68;7.93;;;;;;;;;;6092966;29;20044;-96
2023/12/01 09:00:03;;;;;;;8.50;7.93;;;;;;;;;;6065488;29;20052;-95
2023/12/01 09:03:05;;;;;;;8.05;7.35;;;;;;;;;;6083864;29;20045;-95
2023/12/01 09:06:07;;;;;;;6.95;6.55;;;;;;;;;;6075108;29;20049;-96
2023/12/01 09:09:09;;;;;;;11.00;10.15;;;;;;;;;;6074036;29;20044;-96
2023/12/01 09:12:11;;;;;;;7.93;7.43;;;;;;;;;;6074760;29;20526;-95
2023/12/01 09:15:13;;;;;;;15.00;13.85;;;;;;;;;;6081886;29;20448;-96
2023/12/01 09:18:15;;;;;;;7.22;6.85;;;;;;;;;;6092886;29;20043;-96
2023/12/01 09:21:18;;;;;;;8.93;8.52;;;;;;;;;;6085787;29;20052;-96
2023/12/01 09:24:20;;;;;;;8.70;8.10;;;;;;;;;;6093650;29;20399;-96
2023/12/01 09:27:22;;;;;;;7.72;7.22;;;;;;;;;;6087241;29;20044;-96
2023/12/01 09:30:25;;;;;;;8.60;8.00;;;;;;;;;;6077239;29;20051;-95
2023/12/01 09:33:27;;;;;;;7.50;6.85;;;;;;;;;;6093267;29;20508;-96
2023/12/01 09:36:30;;;;;;;7.20;6.78;;;;;;;;;;6084476;29;20063;-96
2023/12/01 09:39:32;;;;;;;8.13;7.70;;;;;;;;;;6092827;29;20056;-96
2023/12/01 09:42:34;;;;;;;9.70;9.10;;;;;;;;;;6084327;29;20126;-96
2023/12/01 09:45:36;;;;;;;7.53;7.15;;;;;;;;;;6086329;29;20044;-96
2023/12/01 09:48:40;;;;;;;7.75;7.15;;;;;;;;;;6092244;29;20101;-96
2023/12/01 09:51:42;;;;;;;7.93;7.50;;;;;;;;;;6090828;29;20048;-96
2023/12/01 09:54:43;;;;;;;9.05;8.10;;;;;;;;;;6081225;29;20067;-96
2023/12/01 09:58:05;;;;;;;10.60;7.57;;;;;;;;;;6084015;29;20044;-96
2023/12/01 10:01:07;;;;;;;7.13;6.82;;;;;;;;;;6085982;29;20056;-95
2023/12/01 10:04:08;;;;;;;7.65;7.07;;;;;;;;;;6102597;29;20044;-96
2023/12/01 10:07:11;;;;;;;6.68;6.18;;;;;;;;;;6085865;29;20542;-96
2023/12/01 10:10:23;;;;;;;7.72;7.20;;;;;;;;;;6049577;29;1250527;-96
2023/12/01 10:13:25;;;;;;;8.75;7.82;;;;;;;;;;6088692;29;20052;-96
2023/12/01 10:16:34;;;;;;;6.88;6.30;;;;;;;;;;6076538;29;20147;-96
2023/12/01 10:19:44;;;;;;;7.95;7.22;;;;;;;;;;6094180;29;20392;-96
2023/12/01 10:22:46;;;;;;;8.35;7.70;;;;;;;;;;6087738;29;20249;-96
2023/12/01 10:25:49;;;;;;;5.75;5.45;;;;;;;;;;6095930;29;20060;-95
2023/12/01 10:28:50;;;;;;;8.82;8.02;;;;;;;;;;6080239;29;20057;-96
2023/12/01 10:31:52;;;;;;;6.95;6.63;;;;;;;;;;6080362;29;20050;-96
2023/12/01 10:34:55;;;;;;;5.90;5.55;;;;;;;;;;6082752;29;20052;-96
2023/12/01 10:37:57;;;;;;;6.63;6.25;;;;;;;;;;6089261;29;20419;-96
2023/12/01 10:41:00;;;;;;;8.85;8.15;;;;;;;;;;6093330;29;20431;-96
2023/12/01 10:44:02;;;;;;;7.30;6.90;;;;;;;;;;6089570;29;20399;-96
2023/12/01 10:47:04;;;;;;;8.13;7.72;;;;;;;;;;6083245;29;20531;-96
2023/12/01 10:50:07;;;;;;;6.03;5.60;;;;;;;;;;6076940;29;20044;-96
2023/12/01 10:53:10;;;;;;;6.70;6.32;;;;;;;;;;6093241;29;20585;-96
2023/12/01 10:56:13;;;;;;;6.25;5.95;;;;;;;;;;6092095;29;20052;-96
2023/12/01 10:59:18;;;;;;;7.53;7.13;;;;;;;;;;6089331;29;20094;-96
2023/12/01 11:02:23;;;;;;;7.93;7.15;;;;;;;;;;6108381;29;20068;-96
2023/12/01 11:05:27;;;;;;;9.27;8.52;;;;;;;;;;6091057;29;20433;-96
2023/12/01 11:08:42;;;;;;;6.95;6.55;;;;;;;;;;6088174;29;20060;-96
2023/12/01 11:11:44;;;;;;;9.93;9.32;;;;;;;;;;6081949;29;20079;-96
2023/12/01 11:14:49;;;;;;;7.13;6.78;;;;;;;;;;6077000;29;20045;-96
2023/12/01 11:17:51;;;;;;;7.60;7.25;;;;;;;;;;6080958;29;20044;-96
2023/12/01 11:20:54;;;;;;;8.05;7.43;;;;;;;;;;6093905;29;20054;-96
2023/12/01 11:24:16;;;;;;;6.18;5.88;;;;;;;;;;6089777;29;20052;-96
2023/12/01 11:27:19;;;;;;;6.95;6.40;;;;;;;;;;6081674;29;20573;-96
2023/12/01 11:30:23;;;;;;;6.57;6.03;;;;;;;;;;6090681;29;20410;-95
2023/12/01 11:33:38;;;;;;;9.05;8.55;;;;;;;;;;6074520;29;20052;-96
2023/12/01 11:36:48;;;;;;;8.48;7.80;;;;;;;;;;6076473;29;20506;-95
2023/12/01 11:40:12;;;;;;;8.13;7.72;;;;;;;;;;6086540;29;20048;-95
2023/12/01 11:43:15;;;;;;;6.43;5.97;;;;;;;;;;6072932;29;20040;-95
2023/12/01 11:46:22;;;;;;;7.20;6.80;;;;;;;;;;6091291;29;20059;-95
2023/12/01 11:49:26;;;;;;;9.10;8.27;;;;;;;;;;6087650;29;20106;-94
2023/12/01 11:52:28;;;;;;;9.15;8.40;;;;;;;;;;6087389;29;20043;-94
2023/12/01 11:55:30;;;;;;;8.30;7.47;;;;;;;;;;6078965;29;20052;-95
2023/12/01 11:58:32;;;;;;;7.22;6.82;;;;;;;;;;6091992;29;20096;-94
2023/12/01 12:01:34;;;;;;;6.57;6.25;;;;;;;;;;6080440;29;20052;-95
2023/12/01 12:04:42;;;;;;;11.40;6.90;;;;;;;;;;6084509;29;20049;-95
2023/12/01 12:07:45;;;;;;;7.93;7.43;;;;;;;;;;6083393;29;20100;-95
2023/12/01 12:10:47;;;;;;;7.20;6.75;;;;;;;;;;6082047;29;20044;-95
2023/12/01 12:13:58;;;;;;;6.55;6.25;;;;;;;;;;6088010;29;20044;-95
2023/12/01 12:17:00;;;;;;;8.30;7.75;;;;;;;;;;6087888;29;20044;-95
2023/12/01 12:20:02;;;;;;;7.28;6.78;;;;;;;;;;6082347;29;20040;-94
2023/12/01 12:23:15;;;;;;;7.57;7.18;;;;;;;;;;6083011;29;20467;-96
2023/12/01 12:26:18;;;;;;;7.72;7.32;;;;;;;;;;6082024;29;20496;-95
2023/12/01 12:29:20;;;;;;;7.75;7.25;;;;;;;;;;6084124;29;20059;-95
2023/12/01 12:32:22;;;;;;;6.78;6.47;;;;;;;;;;6094124;29;20048;-96
2023/12/01 12:35:24;;;;;;;6.75;6.45;;;;;;;;;;6087363;29;20075;-95
2023/12/01 12:38:27;;;;;;;9.43;8.88;;;;;;;;;;6077192;29;20131;-95
2023/12/01 12:41:29;;;;;;;6.65;6.25;;;;;;;;;;6077014;29;20458;-95
2023/12/01 12:44:31;;;;;;;6.97;6.30;;;;;;;;;;6080047;29;20059;-95
2023/12/01 12:47:40;;;;;;;8.48;7.88;;;;;;;;;;6067585;29;20056;-95
2023/12/01 12:50:42;;;;;;;8.02;7.43;;;;;;;;;;6069697;29;20554;-95
2023/12/01 12:53:45;;;;;;;9.10;7.20;;;;;;;;;;6077606;29;20056;-95
2023/12/01 12:56:48;;;;;;;6.53;6.22;;;;;;;;;;6074448;29;20517;-95
2023/12/01 12:59:54;;;;;;;6.30;6.00;;;;;;;;;;6085380;29;20285;-95
2023/12/01 13:02:57;;;;;;;7.63;6.97;;;;;;;;;;6080499;29;20061;-96
2023/12/01 13:06:00;;;;;;;7.80;7.13;;;;;;;;;;6081641;29;20103;-95
2023/12/01 13:09:01;;;;;;;6.78;6.38;;;;;;;;;;6073962;29;20419;-95
2023/12/01 13:12:05;;;;;;;7.75;7.00;;;;;;;;;;6077284;29;20087;-95
2023/12/01 13:15:07;;;;;;;5.32;5.13;;;;;;;;;;6085405;29;20063;-96
2023/12/01 13:18:09;;;;;;;6.70;6.40;;;;;;;;;;6087995;29;20056;-95
2023/12/01 13:21:11;;;;;;;7.88;7.07;;;;;;;;;;6087842;29;20059;-95
2023/12/01 13:24:13;;;;;;;7.55;7.07;;;;;;;;;;6092173;29;20076;-95
2023/12/01 13:27:14;;;;;;;7.20;6.70;;;;;;;;;;6086612;29;20036;-95
2023/12/01 13:30:16;;;;;;;8.48;7.80;;;;;;;;;;6083757;29;20223;-96
2023/12/01 13:33:19;;;;;;;6.95;6.57;;;;;;;;;;6089469;29;20051;-96
2023/12/01 13:36:21;;;;;;;8.77;8.27;;;;;;;;;;6087077;29;20138;-96
2023/12/01 13:39:25;;;;;;;8.20;7.13;;;;;;;;;;6092024;29;20040;-95
2023/12/01 13:42:29;;;;;;;6.45;6.15;;;;;;;;;;6089945;29;20052;-94
2023/12/01 13:45:31;;;;;;;6.38;6.13;;;;;;;;;;6064897;29;20060;-95
2023/12/01 13:48:33;;;;;;;8.15;7.47;;;;;;;;;;6085450;29;20083;-95
2023/12/01 13:51:35;;;;;;;7.10;6.72;;;;;;;;;;6090446;29;20545;-95
2023/12/01 13:54:37;;;;;;;8.45;7.55;;;;;;;;;;6091850;29;20051;-95
2023/12/01 13:57:39;;;;;;;12.13;6.50;;;;;;;;;;6101966;29;20466;-96
2023/12/01 14:00:41;;;;;;;7.00;6.43;;;;;;;;;;6082637;29;20533;-95
2023/12/01 14:03:44;;;;;;;8.73;7.00;;;;;;;;;;6090388;29;20045;-96
2023/12/01 14:06:47;;;;;;;8.80;8.10;;;;;;;;;;6088610;29;20527;-95
2023/12/01 14:09:49;;;;;;;7.68;6.93;;;;;;;;;;6084101;29;20097;-95
2023/12/01 14:12:51;;;;;;;5.88;5.68;;;;;;;;;;6078273;29;20550;-95
2023/12/01 14:15:52;;;;;;;7.07;6.55;;;;;;;;;;6089083;29;20051;-95
2023/12/01 14:18:55;;;;;;;7.32;6.78;;;;;;;;;;6085332;29;20431;-95
2023/12/01 14:21:57;;;;;;;6.72;6.43;;;;;;;;;;6084373;29;20048;-95
2023/12/01 14:24:59;;;;;;;9.40;8.13;;;;;;;;;;6084679;29;20036;-95
2023/12/01 14:28:01;;;;;;;9.27;8.68;;;;;;;;;;6092396;29;20055;-96
2023/12/01 14:31:03;;;;;;;5.63;5.43;;;;;;;;;;6090353;29;20115;-95
2023/12/01 14:34:06;;;;;;;7.20;6.70;;;;;;;;;;6086729;29;20154;-96
2023/12/01 14:37:08;;;;;;;8.63;8.02;;;;;;;;;;6092551;29;20055;-96
2023/12/01 14:40:11;;;;;;;8.02;7.63;;;;;;;;;;6086406;29;20055;-96
2023/12/01 14:43:13;;;;;;;6.75;6.25;;;;;;;;;;6089008;29;20044;-96
2023/12/01 14:46:15;;;;;;;10.48;7.72;;;;;;;;;;6090799;29;20454;-96
2023/12/01 14:49:17;;;;;;;7.35;6.82;;;;;;;;;;6103598;29;20052;-96
2023/12/01 14:52:19;;;;;;;8.75;8.23;;;;;;;;;;6087301;29;20055;-96
2023/12/01 14:55:20;;;;;;;8.68;8.10;;;;;;;;;;6084411;29;20063;-96
2023/12/01 14:58:23;;;;;;;6.97;6.57;;;;;;;;;;6098562;29;20437;-96
2023/12/01 15:01:24;;;;;;;8.60;8.10;;;;;;;;;;6076607;29;20051;-96
2023/12/01 15:04:29;;;;;;;7.90;7.30;;;;;;;;;;6106679;29;20043;-96
2023/12/01 15:07:34;;;;;;;7.18;6.68;;;;;;;;;;6082670;29;20040;-96
2023/12/01 15:10:36;;;;;;;7.85;7.38;;;;;;;;;;6085291;29;20427;-96
2023/12/01 15:13:38;;;;;;;11.20;10.23;;;;;;;;;;6085935;29;20056;-96
2023/12/01 15:16:39;;;;;;;6.13;5.93;;;;;;;;;;6088085;29;21568;-96
2023/12/01 15:19:41;;;;;;;7.10;6.70;;;;;;;;;;6085073;29;20049;-96
2023/12/01 15:22:43;;;;;;;8.27;7.43;;;;;;;;;;6102077;29;20102;-96
2023/12/01 15:25:45;;;;;;;8.73;8.05;;;;;;;;;;6090398;29;20630;-96
2023/12/01 15:28:47;;;;;;;8.93;8.30;;;;;;;;;;6090011;29;20099;-96
2023/12/01 15:31:49;;;;;;;7.40;7.00;;;;;;;;;;6091272;29;20044;-96
2023/12/01 15:34:51;;;;;;;5.93;5.70;;;;;;;;;;6092930;29;20051;-96
2023/12/01 15:37:53;;;;;;;7.00;6.50;;;;;;;;;;6091455;29;20587;-96
2023/12/01 15:40:55;;;;;;;7.50;6.78;;;;;;;;;;6083340;29;20505;-96
2023/12/01 15:43:57;;;;;;;8.65;8.05;;;;;;;;;;6089142;29;20040;-96
2023/12/01 15:46:59;;;;;;;7.50;7.10;;;;;;;;;;6084820;29;20048;-96
2023/12/01 15:50:04;;;;;;;7.05;6.75;;;;;;;;;;6082099;29;20051;-96
2023/12/01 15:53:08;;;;;;;8.40;8.00;;;;;;;;;;6089709;29;20055;-96
2023/12/01 15:56:09;;;;;;;9.27;8.60;;;;;;;;;;6082881;29;20056;-96
2023/12/01 15:59:12;;;;;;;7.78;7.18;;;;;;;;;;6089532;29;20047;-96
2023/12/01 16:02:18;;;;;;;7.38;6.90;;;;;;;;;;6083828;29;20048;-96
2023/12/01 16:05:22;;;;;;;9.63;8.95;;;;;;;;;;6102981;29;20429;-96
2023/12/01 16:08:23;;;;;;;7.82;7.30;;;;;;;;;;6090568;29;20044;-96
2023/12/01 16:11:25;;;;;;;20.85;8.57;;;;;;;;;;6089575;29;20184;-96
2023/12/01 16:14:27;;;;;;;8.95;7.80;;;;;;;;;;6084436;29;20055;-96
2023/12/01 16:17:29;;;;;;;16.17;9.23;;;;;;;;;;6083298;29;20051;-96
2023/12/01 16:20:30;;;;;;;7.95;7.32;;;;;;;;;;6094804;29;20052;-96
2023/12/01 16:23:32;;;;;;;9.70;8.93;;;;;;;;;;6086892;29;20048;-96
2023/12/01 16:26:38;;;;;;;7.93;7.38;;;;;;;;;;6085089;29;20067;-96
2023/12/01 16:29:41;;;;;;;9.77;8.98;;;;;;;;;;6087430;29;20041;-95
2023/12/01 16:32:43;;;;;;;8.75;8.10;;;;;;;;;;6090268;29;20052;-96
2023/12/01 16:35:46;;;;;;;9.88;6.82;;;;;;;;;;6077349;29;20055;-96
2023/12/01 16:38:47;;;;;;;9.82;8.90;;;;;;;;;;6089310;29;20048;-96
2023/12/01 16:41:49;;;;;;;9.68;8.18;;;;;;;;;;6087607;29;20072;-96
2023/12/01 16:44:51;;;;;;;6.93;6.63;;;;;;;;;;6088749;29;20095;-96
2023/12/01 16:47:53;;;;;;;8.15;7.43;;;;;;;;;;6088930;29;20452;-96
2023/12/01 16:50:55;;;;;;;7.45;6.88;;;;;;;;;;6100523;29;20054;-96
2023/12/01 16:53:58;;;;;;;10.60;9.82;;;;;;;;;;6078497;29;20051;-96
2023/12/01 16:57:00;;;;;;;9.57;8.90;;;;;;;;;;6090460;29;20056;-96
2023/12/01 17:00:02;;;;;;;9.10;8.32;;;;;;;;;;6088627;29;20535;-96
2023/12/01 17:03:05;;;;;;;7.03;6.70;;;;;;;;;;6088797;29;20497;-96
2023/12/01 17:06:07;;;;;;;8.02;7.45;;;;;;;;;;6088283;29;20048;-96
2023/12/01 17:09:09;;;;;;;8.65;8.07;;;;;;;;;;6090820;29;20462;-95
2023/12/01 17:12:11;;;;;;;8.20;7.65;;;;;;;;;;6087657;29;20889;-96
2023/12/01 17:15:13;;;;;;;8.55;7.75;;;;;;;;;;6082828;29;20051;-96
2023/12/01 17:18:16;;;;;;;8.18;7.68;;;;;;;;;;6083274;29;20514;-96
2023/12/01 17:21:18;;;;;;;7.45;6.97;;;;;;;;;;6085726;29;20104;-96
2023/12/01 17:24:20;;;;;;;7.43;7.07;;;;;;;;;;6083727;29;20515;-96
2023/12/01 17:27:22;;;;;;;6.15;5.85;;;;;;;;;;6084742;29;20601;-96
2023/12/01 17:30:24;;;;;;;10.23;9.32;;;;;;;;;;6069186;29;20048;-95
2023/12/01 17:33:26;;;;;;;7.22;6.72;;;;;;;;;;6105628;29;20048;-96
2023/12/01 17:36:28;;;;;;;6.07;5.80;;;;;;;;;;6087196;29;20431;-96
2023/12/01 17:39:31;;;;;;;8.77;8.25;;;;;;;;;;6092396;29;20499;-96
2023/12/01 17:42:33;;;;;;;8.52;8.02;;;;;;;;;;6090525;29;20586;-96
2023/12/01 17:45:35;;;;;;;5.95;5.72;;;;;;;;;;6089863;29;20521;-96
2023/12/01 17:48:37;;;;;;;8.05;7.57;;;;;;;;;;6074091;29;20119;-96
2023/12/01 17:51:39;;;;;;;8.23;7.28;;;;;;;;;;6071288;29;20063;-96
2023/12/01 17:54:41;;;;;;;13.13;6.53;;;;;;;;;;6095720;29;20055;-96
2023/12/01 17:57:43;;;;;;;8.20;7.50;;;;;;;;;;6090826;29;20492;-96
2023/12/01 18:00:45;;;;;;;9.50;8.77;;;;;;;;;;6103041;29;20040;-96
2023/12/01 18:03:47;;;;;;;9.07;8.38;;;;;;;;;;6093111;29;20099;-96
2023/12/01 18:06:50;;;;;;;9.82;6.95;;;;;;;;;;6090987;29;20044;-96